ADDS METAR Data INFO
IDs: Format: Raw Decoded Include TAF

Data at: 2257 UTC 22 Jun 2018

KCVG 222252Z 17007KT 10SM FEW015 SCT120 SCT150 BKN200 22/22 A2966 RMK AO2 LTG DSNT E RAE32 TSE13 SLP033 P0005 T02220217
KCVG 222225Z 21006KT 6SM -RA BR FEW020 FEW045 BKN090 BKN150 21/21 A2967 RMK AO2 LTG DSNT E AND SE TSE13 P0005 T02110206
KCVG 222214Z 00000KT 3SM VCTS RA BR FEW020 BKN100 OVC110 21/21 A2967 RMK AO2 LTG DSNT E AND SE TSE13 PRESFR TS MOV NE P0004 T02060206
KCVG 222152Z 16009KT 5SM -TSRA BR FEW030 BKN090CB OVC110 20/19 A2969 RMK AO2 LTG DSNT SE AND S SLP046 OCNL LTGCC S TS SE MOV NE P0005 T02000194
KCVG 222119Z 27003KT 10SM TS FEW030 SCT060CB BKN090 OVC130 20/18 A2968 RMK AO2 LTG DSNT N AND S RAE12 OCNL LTGCC NE S TS NE S MOV NE P0002 T02000183
KCVG 222111Z 23004KT 10SM VCTS -RA FEW030 SCT060 BKN090 OVC130 20/18 A2969 RMK AO2 VIS 2 36R LTG DSNT ALQDS P0002 T02000183
KCVG 222052Z 25009KT 9SM -RA FEW035 SCT060 OVC110 20/18 A2970 RMK AO2 LTG DSNT SW RAB02 TSB13E45B48E51 SLP050 P0000 60000 T02000183 56004
KCVG 222046Z 25007KT 10SM -RA FEW033 SCT060 OVC100 20/18 A2970 RMK AO2 LTG DSNT SW RAB02 TSB13E45 TS MOV NE P0000
KCVG 222013Z 21008G15KT 10SM -TSRA SCT035CB SCT100 BKN120 BKN190 24/17 A2969 RMK AO2 LTG DSNT SE AND W AND NW RAB02 TSB13 OCNL LTGICCC SW-NW TS SW-NW MOV NE P0000 T02390172
KCVG 221952Z 19010KT 10SM FEW025 FEW060 BKN120 BKN150 26/17 A2969 RMK AO2 LTG DSNT SW AND W SLP044 T02560172
KCVG 221852Z 18011G17KT 10SM FEW020 BKN100 BKN140 26/18 A2971 RMK AO2 RAE03 SLP051 P0000 T02560178
KCVG 221752Z 22008G17KT 7SM -RA SCT100CB OVC110 22/18 A2974 RMK AO2 LTG DSNT SE AND S RAB22 TSE31 SLP062 BINOVC P0001 60001 T02220183 10267 20206 53000
KCVG 221737Z 23010KT 10SM VCTS -RA BKN110 OVC130 23/18 A2974 RMK AO2 LTG DSNT SE AND S P0000 T02330183
KCVG 221652Z 20009KT 10SM FEW025 SCT120 26/18 A2974 RMK AO2 SLP060 T02610178
KCVG 221552Z 23006KT 10SM FEW017 SCT110 25/19 A2974 RMK AO2 SLP061 T02500189
KCVG 221509Z 20009KT 10SM BKN014 BKN100 23/19 A2974 RMK AO2 T02330194
KCVG 221452Z 22009KT 10SM FEW012 BKN100 BKN120 24/20 A2974 RMK AO2 SLP061 T02390200 51003
KCVG 221442Z 19010KT 10SM FEW016 FEW110 SCT120 23/19 A2974 RMK AO2 T02330194
KCVG 221352Z 21011KT 10SM BKN012 OVC110 23/20 A2974 RMK AO2 SLP060 T02330200
KCVG 221324Z 20008KT 9SM FEW007 BKN011 BKN110 23/21 A2974 RMK AO2 T02280206
KCVG 221252Z 19007KT 5SM BR OVC006 22/21 A2974 RMK AO2 CIG 003V010 SLP060 T02170206
KCVG 221248Z 20006KT 4SM BR OVC004 22/21 A2974 RMK AO2 CIG 003V008
KCVG 221152Z 17006KT 1/4SM R18C/3500V5500FT FG VV002 21/20 A2973 RMK AO2 TWR VIS 1/4 SLP058 60023 70037 T02060200 10222 20194 52012
KCVG 221116Z 21004KT 1/2SM R18C/6000VP6000FT FG VV002 21/20 A2973 RMK AO2 TWR VIS 1 T02060200
KCVG 221052Z 18006KT 1SM R18C/P6000FT BR OVC002 21/21 A2972 RMK AO2 SFC VIS 3 SLP054 T02060206 $
KCVG 221004Z COR 18004KT 1SM R18C/P6000FT BR BKN002 BKN055 20/20 A2971 RMK AO2 SFC VIS 5 T02000200
KCVG 220952Z 20004KT 10SM FEW012 SCT055 SCT150 20/19 A2971 RMK AO2 SLP051 T02000194
KCVG 220852Z 00000KT 9SM SCT110 20/20 A2970 RMK AO2 LTG DSNT NE RAE03 TSE05 SLP046 TS MOV NE P0000 60023 T02000200 58005
KCVG 220811Z VRB04KT 10SM SCT070 SCT095 OVC110 21/19 A2971 RMK AO2 RAE03 TSE05 TS MOV NE P0000 T02110194
KCVG 220752Z 00000KT 5SM -TSRA BR SCT020CB BKN037 OVC065 22/20 A2971 RMK AO2 RAB28 TSE25B31 SLP052 OCNL LTGIC NW TS NW MOV NE P0023 T02170200
KCVG 220737Z 20007KT 5SM TSRA BR SCT010CB OVC020 22/21 A2971 RMK AO2 LTG DSNT NE RAB28 TSE25B31 OCNL LTGIC NW TS NW MOV NE P0011 T02170206
KCVG 220722Z COR 20005KT 9SM SCT010CB OVC019 22/20 A2970 RMK AO2 LTG DSNT NE T02170200 OCNL LTGIC NW TS NW MOV NE
KCVG 220652Z 19003KT 10SM SCT008 BKN014 OVC033 22/21 A2971 RMK AO2 RAB39E50 SLP051 P0000 T02170206
KCVG 220642Z 17003KT 10SM -RA BKN009 OVC019 22/21 A2971 RMK AO2 RAB39 CIG 006V011 P0000 T02220206
KCVG 220634Z VRB06KT 10SM FEW006 BKN010 OVC030 22/20 A2971 RMK AO2 LTG DSNT W T02220200
KCVG 220627Z 32006KT 10SM OVC009 22/21 A2971 RMK AO2 LTG DSNT W CIG 006V011 T02170206
KCVG 220601Z 15003KT 10SM BKN010 22/20 A2971 RMK AO2 T02170200
KCVG 220552Z 00000KT 10SM FEW016 BKN040 22/20 A2971 RMK AO2 SLP051 60001 T02170200 10250 20211 58014
KCVG 220542Z 00000KT 10SM FEW016 SCT023 SCT060 21/20 A2972 RMK AO2 T02110200
KCVG 220459Z 00000KT 10SM SCT018 BKN023 BKN060 22/20 A2973 RMK AO2 T02170200
KCVG 220452Z 00000KT 10SM SCT018 BKN060 22/20 A2974 RMK AO2 SLP060 T02170200 402560217
KCVG 220352Z 16004KT 10SM BKN023 OVC033 23/21 A2974 RMK AO2 SLP062 T02280206
KCVG 220324Z 09004KT 10SM FEW020 BKN036 BKN045 23/21 A2975 RMK AO2 T02280211
KCVG 220252Z 00000KT 10SM FEW009 BKN019 OVC036 23/21 A2975 RMK AO2 LTG DSNT E RAE10 SLP066 P0000 60001 T02280206 53009
KCVG 220204Z 18004KT 10SM -RA FEW008 SCT028 BKN100 BKN140 23/21 A2974 RMK AO2 P0000 T02280211
KCVG 220152Z 12006KT 8SM -RA FEW023 SCT034 BKN110 BKN140 BKN250 23/21 A2973 RMK AO2 RAB32 SLP059 P0001 T02330211
KCVG 220052Z 04005KT 10SM FEW017 FEW043 BKN110 BKN240 24/20 A2974 RMK AO2 SLP059 TCU DSNT SE SW T02390200
KCVG 212352Z 01003KT 10SM FEW016 SCT140 BKN230 24/20 A2973 RMK AO2 LTG DSNT S SLP057 CB DSNT SE-S TCU DSNT SE SW W 60004 T02440200 10256 20222 55004
KCVG 212252Z 01004KT 10SM FEW013 BKN055 24/21 A2972 RMK AO2 SLP055 TCU DSNT S-SW T02440206
KCVG 212152Z 31006KT 10SM FEW009 FEW030 OVC041 24/21 A2973 RMK AO2 SLP058 BINOVC T02390206
KCVG 212136Z 29008KT 10SM FEW008 SCT019 OVC043 24/21 A2974 RMK AO2 BINOVC T02390211
KCVG 212052Z 28011KT 10SM SCT008 BKN024 OVC035 23/21 A2974 RMK AO2 RAB1954E03 SLP061 SCT V FEW BINOVC OHD-S P0000 60004 T02330211 56010
KCVG 212009Z 23010KT 6SM BR FEW008 BKN015 OVC028 22/21 A2974 RMK AO2 RAB1954E03 VCSH SW NW P0000 T02220206
KCVG 211952Z 21010KT 10SM FEW010 SCT023 OVC034 23/21 A2975 RMK AO2 RAE43 SLP063 P0004 T02280211
KCVG 211943Z 21010KT 9SM SCT011 SCT021 OVC038 23/21 A2975 RMK AO2 RAE43 P0004 T02280211
KCVG 211930Z 22008KT 2SM R18C/4000VP6000FT RA BR SCT012 BKN020 OVC040 23/22 A2975 RMK AO2 SFC VIS 4 P0003 T02280217
KCVG 211923Z 15009KT 2SM R18C/5000VP6000FT -RA BR SCT013 SCT024 OVC044 23/22 A2974 RMK AO2 SFC VIS 3 P0000 T02280217
KCVG 211852Z 16009KT 10SM -RA FEW009 BKN034 BKN070 OVC130 24/22 A2975 RMK AO2 SLP066 P0000 T02390222 $
KCVG 211821Z 17008KT 7SM -RA FEW008 SCT026 OVC050 23/22 A2976 RMK AO2 P0000 T02330222 $
KCVG 211803Z 18007KT 6SM -RA BR SCT006 BKN020 OVC060 24/23 A2977 RMK AO2 CIG 016V027 P0000 T02390228 $
KCVG 211752Z 00000KT 2 1/2SM -RA BR BKN005 BKN015 OVC024 23/23 A2977 RMK AO2 SFC VIS 4 SLP071 P0003 60009 T02330233 10239 20222 58014 $
KCVG 211728Z 23004KT 2 1/2SM -RA BR BKN007 BKN014 OVC024 23/23 A2978 RMK AO2 SFC VIS 3 CIG 005V010 P0003 T02330228 $
KCVG 211714Z 19005KT 4SM -RA BR SCT008 BKN014 OVC075 24/24 A2978 RMK AO2 P0002 T02390239 $
KCVG 211652Z 18006KT 5SM -RA BR FEW007 SCT011 OVC045 23/23 A2979 RMK AO2 RAE14B35 SLP077 P0002 T02330228 $
KCVG 211617Z 16004KT 5SM BR SCT008 BKN050 OVC070 23/23 A2980 RMK AO2 RAE14 P0002 T02330233 $
KCVG 211552Z 00000KT 1 1/2SM R18C/5500VP6000FT RA BR SCT007 OVC014 23/22 A2981 RMK AO2 SFC VIS 2 RAB03 CIG 009 36R SLP084 P0003 T02280217 $
KCVG 211511Z 31003KT 3SM R18C/5500VP6000FT -RA BR SCT015 BKN028 OVC044 22/20 A2981 RMK AO2 SFC VIS 4 RAB03 P0001 T02220200
KCVG 211452Z 28006KT 3SM BR FEW007 BKN014 OVC043 23/21 A2981 RMK AO2 SFC VIS 6 SLP084 RAB1354E40 P0001 60001 T02280206 58004
KCVG 211436Z COR 29005KT 3SM -RA SCT008 BKN014 OVC049 22/19 A2981 RMK AO2 SFC VIS 6 RAB1354E36 P0001 T02220194
KCVG 211407Z 19006KT 3SM -RA BR SCT007 BKN049 OVC060 23/22 A2982 RMK AO2 SFC VIS 5 RAB1354 P0000 T02330217
KCVG 211404Z 20004KT 5SM -RA BR SCT008 BKN049 OVC060 23/22 A2982 RMK AO2 RAB1354 P0000 T02330217
KCVG 211352Z 20005KT 7SM SCT010 BKN050 OVC090 23/22 A2982 RMK AO2 RAE00B18E46 SLP088 P0000 T02330217
KCVG 211252Z 19007KT 8SM -RA FEW065 SCT085 BKN110 OVC150 23/22 A2982 RMK AO2 RAB47 SLP086 P0000 T02330222
KCVG 211152Z 19004KT 10SM FEW021 BKN030 BKN049 23/22 A2982 RMK AO2 SLP087 60040 70040 T02280222 10239 20217 50002
KCVG 211110Z 18003KT 8SM FEW012 SCT023 OVC034 22/22 A2983 RMK AO2 BINOVC T02220222